Time;durP1;ratioP1;P1;durP2;ratioP2;P2;SDS_P1;SDS_P2;PMS_P1;PMS_P2;Temp;Humidity;BMP_temperature;BMP_pressure;BME280_temperature;BME280_humidity;BME280_pressure;Samples;Min_cycle;Max_cycle;Signal;HPM_P1;HPM_P2
2023/01/18 00:00:19;;;;;;;8.88;3.42;;;;;;;-2.92;95.59;99055.56;5115132;28;20028;-82
2023/01/18 00:02:45;;;;;;;9.95;3.80;;;;;;;-2.93;95.30;99047.09;5114687;28;20028;-82
2023/01/18 00:05:12;;;;;;;7.82;3.67;;;;;;;-2.92;95.45;99056.41;5115834;28;20035;-82
2023/01/18 00:07:37;;;;;;;8.30;3.47;;;;;;;-2.91;96.20;99052.19;5114978;28;20489;-82
2023/01/18 00:10:03;;;;;;;8.45;3.30;;;;;;;-2.91;95.57;99047.97;5115931;28;20024;-82
2023/01/18 00:12:28;;;;;;;7.00;3.45;;;;;;;-2.92;95.64;99046.28;5115863;28;20030;-82
2023/01/18 00:14:53;;;;;;;7.47;3.28;;;;;;;-2.96;95.70;99047.94;5115165;28;20369;-82
2023/01/18 00:17:19;;;;;;;5.75;3.28;;;;;;;-2.97;96.24;99043.69;5115555;28;20036;-83
2023/01/18 00:19:44;;;;;;;7.70;3.47;;;;;;;-2.99;95.71;99045.34;5115161;28;20019;-82
2023/01/18 00:22:09;;;;;;;6.63;3.25;;;;;;;-2.99;95.59;99054.66;5114984;28;20487;-82
2023/01/18 00:24:34;;;;;;;6.45;3.22;;;;;;;-3.00;95.66;99053.78;5115632;28;20023;-82
2023/01/18 00:27:00;;;;;;;7.95;3.70;;;;;;;-2.99;95.67;99052.97;5115799;28;20471;-82
2023/01/18 00:29:25;;;;;;;7.75;3.50;;;;;;;-2.99;96.22;99054.66;5114709;28;20030;-82
2023/01/18 00:31:50;;;;;;;7.68;3.55;;;;;;;-2.99;95.93;99055.50;5114928;28;20027;-81
2023/01/18 00:34:16;;;;;;;6.57;3.47;;;;;;;-3.00;95.84;99061.41;5114784;28;20106;-82
2023/01/18 00:36:41;;;;;;;6.30;3.67;;;;;;;-3.02;96.24;99060.53;5115309;28;20464;-82
2023/01/18 00:39:07;;;;;;;7.70;3.53;;;;;;;-3.05;95.84;99065.59;5115248;28;20028;-82
2023/01/18 00:41:33;;;;;;;6.45;3.47;;;;;;;-3.07;95.58;99072.34;5114706;28;20031;-82
2023/01/18 00:43:58;;;;;;;6.57;3.38;;;;;;;-3.08;96.26;99068.09;5115145;28;20031;-82
2023/01/18 00:46:28;;;;;;;7.38;3.80;;;;;;;-3.07;95.85;99067.28;5114771;28;20373;-82
2023/01/18 00:48:54;;;;;;;7.32;3.63;;;;;;;-3.05;96.14;99065.59;5114116;28;20118;-82
2023/01/18 00:51:22;;;;;;;8.27;4.30;;;;;;;-3.06;96.08;99070.63;5114569;28;20028;-82
2023/01/18 00:53:48;;;;;;;7.38;3.90;;;;;;;-3.06;95.80;99074.06;5115442;28;20035;-82
2023/01/18 00:56:18;;;;;;;8.38;3.83;;;;;;;-3.06;96.02;99068.09;5113932;28;20043;-82
2023/01/18 00:58:43;;;;;;;7.38;3.58;;;;;;;-3.07;95.77;99074.00;5114947;28;20031;-82
2023/01/18 01:01:10;;;;;;;6.97;3.60;;;;;;;-3.08;95.97;99070.63;5114858;28;20023;-82
2023/01/18 01:06:44;;;;;;;7.45;3.58;;;;;;;-3.06;96.12;99070.63;5114962;28;20391;-82
2023/01/18 01:09:23;;;;;;;8.05;3.80;;;;;;;-3.06;96.02;99073.19;5113548;28;20495;-82
2023/01/18 01:28:19;;;;;;;10.27;4.50;;;;;;;-3.16;95.87;99080.69;5114610;28;20112;-81
2023/01/18 01:30:44;;;;;;;10.35;4.20;;;;;;;-3.17;96.05;99083.22;5113574;28;20023;-82
2023/01/18 01:33:10;;;;;;;10.02;4.20;;;;;;;-3.19;95.94;99087.41;5113990;28;20027;-82
2023/01/18 01:35:35;;;;;;;8.85;4.00;;;;;;;-3.20;95.75;99095.88;5114404;28;20043;-82
2023/01/18 01:38:01;;;;;;;9.27;3.97;;;;;;;-3.22;95.84;99095.84;5113745;28;20559;-82
2023/01/18 01:40:26;;;;;;;11.35;4.60;;;;;;;-3.24;95.68;99094.97;5113894;28;20023;-82
2023/01/18 01:42:51;;;;;;;8.18;4.00;;;;;;;-3.27;96.11;99097.47;5114142;28;20065;-82
2023/01/18 01:45:18;;;;;;;8.32;4.00;;;;;;;-3.28;96.12;99098.31;5111345;28;20471;-82
2023/01/18 01:47:46;;;;;;;8.18;3.88;;;;;;;-3.29;96.00;99112.69;5114087;28;20036;-82
2023/01/18 01:50:26;;;;;;;8.00;4.10;;;;;;;-3.31;95.96;99116.00;5114139;28;20038;-82
2023/01/18 01:52:52;;;;;;;6.82;3.60;;;;;;;-3.33;95.92;99113.47;5113251;28;20065;-82
2023/01/18 01:55:23;;;;;;;7.47;3.50;;;;;;;-3.31;95.99;99110.94;5113391;28;20119;-82
2023/01/18 01:57:54;;;;;;;7.88;3.70;;;;;;;-3.34;95.81;99110.91;5093763;28;20028;-82
2023/01/18 02:00:23;;;;;;;5.82;3.45;;;;;;;-3.36;95.67;99110.88;5092449;28;20044;-82
2023/01/18 02:03:17;;;;;;;7.15;3.50;;;;;;;-3.38;96.01;99115.09;5106822;28;20475;-82
2023/01/18 02:05:46;;;;;;;7.28;3.50;;;;;;;-3.38;96.15;99112.56;5105282;28;20036;-82
2023/01/18 02:08:21;;;;;;;6.93;3.35;;;;;;;-3.39;96.01;99115.94;5113583;28;20028;-81
2023/01/18 02:10:47;;;;;;;6.10;3.05;;;;;;;-3.41;96.05;99115.06;5113850;28;20382;-81
2023/01/18 02:13:12;;;;;;;8.73;3.80;;;;;;;-3.42;95.89;99110.81;5111857;28;20483;-82
2023/01/18 02:16:15;;;;;;;6.03;3.15;;;;;;;-3.43;96.26;99109.94;5113055;28;20031;-81
2023/01/18 02:18:51;;;;;;;6.03;3.40;;;;;;;-3.42;96.19;99109.13;5113630;28;20046;-81
2023/01/18 02:21:51;;;;;;;5.35;3.10;;;;;;;-3.42;96.09;99103.22;5111417;28;20051;-81
2023/01/18 02:24:26;;;;;;;6.50;3.20;;;;;;;-3.42;96.05;99103.22;5099786;28;20035;-81
2023/01/18 02:26:58;;;;;;;6.68;3.03;;;;;;;-3.42;96.16;99105.75;5111999;28;20044;-81
2023/01/18 02:29:35;;;;;;;5.38;2.97;;;;;;;-3.42;96.31;99113.34;5112400;28;20043;-81
2023/01/18 02:32:12;;;;;;;5.45;3.20;;;;;;;-3.42;96.17;99116.72;5093187;28;20032;-82
2023/01/18 02:34:47;;;;;;;6.95;3.47;;;;;;;-3.42;96.27;99116.72;5092187;28;20032;-81
2023/01/18 02:37:19;;;;;;;6.13;3.30;;;;;;;-3.43;96.64;99120.09;5092539;28;20509;-81
2023/01/18 02:39:57;;;;;;;6.30;3.20;;;;;;;-3.45;96.64;99119.25;5094477;28;20028;-81
2023/01/18 02:48:10;;;;;;;7.63;3.60;;;;;;;-3.46;96.45;99131.88;5112398;28;20047;-81
2023/01/18 02:50:36;;;;;;;8.35;3.90;;;;;;;-3.48;96.08;99136.06;5113491;28;20028;-81
2023/01/18 02:53:01;;;;;;;6.68;3.47;;;;;;;-3.48;96.59;99141.16;5113310;28;20034;-81
2023/01/18 02:55:32;;;;;;;7.72;3.60;;;;;;;-3.47;96.43;99136.13;5112199;28;20141;-81
2023/01/18 02:58:15;;;;;;;9.95;4.00;;;;;;;-3.47;96.29;99132.72;5112585;28;20036;-81
2023/01/18 03:00:45;;;;;;;10.13;4.30;;;;;;;-3.49;96.12;99142.84;5113262;28;20439;-81
2023/01/18 03:03:13;;;;;;;10.00;4.35;;;;;;;-3.50;96.57;99135.22;5112011;28;20055;-81
2023/01/18 03:05:40;;;;;;;8.73;3.97;;;;;;;-3.53;96.38;99133.47;5112832;28;20024;-81
2023/01/18 03:08:25;;;;;;;9.20;4.15;;;;;;;-3.54;96.77;99131.78;5112479;28;20035;-81
2023/01/18 03:11:02;;;;;;;7.88;3.67;;;;;;;-3.57;96.15;99135.13;5112366;28;20089;-81
2023/01/18 03:13:52;;;;;;;8.05;3.78;;;;;;;-3.57;96.38;99136.81;5112888;28;20023;-81
2023/01/18 03:16:22;;;;;;;7.75;3.72;;;;;;;-3.60;96.38;99137.59;5111675;28;20028;-81
2023/01/18 03:18:59;;;;;;;7.95;4.13;;;;;;;-3.63;96.18;99127.44;5113324;28;20026;-81
2023/01/18 03:21:36;;;;;;;;;;;;;;;-3.66;96.55;99129.94;5112759;28;20171;-81
2023/01/18 03:24:05;;;;;;;9.10;3.95;;;;;;;-3.67;96.19;99140.91;5112001;28;19912;-81
2023/01/18 03:26:35;;;;;;;7.35;3.65;;;;;;;-3.68;96.58;99134.13;5112669;28;20023;-81
2023/01/18 03:34:53;;;;;;;6.72;3.60;;;;;;;-3.73;96.35;99141.66;5112483;28;20061;-81
2023/01/18 03:37:26;;;;;;;7.68;3.63;;;;;;;-3.77;96.84;99137.34;5111899;28;20040;-81
2023/01/18 03:39:57;;;;;;;9.10;4.03;;;;;;;-3.80;96.76;99139.88;5116294;28;20448;-81
2023/01/18 03:42:28;;;;;;;7.32;4.10;;;;;;;-3.83;96.59;99144.03;5116484;28;20039;-81
2023/01/18 03:45:01;;;;;;;7.68;3.63;;;;;;;-3.84;96.68;99144.88;5115889;28;20126;-81
2023/01/18 03:47:27;;;;;;;7.75;3.53;;;;;;;-3.85;96.64;99143.16;5116433;28;20058;-81
2023/01/18 03:49:52;;;;;;;6.50;3.42;;;;;;;-3.87;96.46;99148.19;5116279;28;20442;-81
2023/01/18 03:52:23;;;;;;;8.02;3.70;;;;;;;-3.88;96.74;99146.47;5115460;28;20038;-81
2023/01/18 03:55:13;;;;;;;7.53;3.50;;;;;;;-3.91;96.39;99159.13;5116525;28;20051;-81
2023/01/18 03:57:50;;;;;;;6.70;3.40;;;;;;;-3.92;96.74;99168.41;5116101;28;20028;-81
2023/01/18 04:00:16;;;;;;;;;;;;;;;-3.93;96.45;99171.75;5115963;28;20028;-81
2023/01/18 04:02:45;;;;;;;8.02;3.80;;;;;;;-3.94;96.42;99180.19;5116245;28;19919;-82
2023/01/18 04:05:12;;;;;;;7.88;3.65;;;;;;;-3.94;96.52;99181.88;5114458;28;20043;-81
2023/01/18 04:07:37;;;;;;;6.17;3.23;;;;;;;-3.94;96.73;99189.47;5115734;28;20103;-81
2023/01/18 04:10:03;;;;;;;7.50;3.70;;;;;;;-3.96;96.51;99192.00;5115461;28;20030;-80
2023/01/18 04:12:30;;;;;;;7.85;3.85;;;;;;;-3.97;96.82;99190.28;5114064;28;20043;-81
2023/01/18 04:14:55;;;;;;;7.28;3.67;;;;;;;-4.00;96.93;99192.75;5115847;28;20027;-81
2023/01/18 04:17:21;;;;;;;7.43;3.65;;;;;;;-4.03;96.48;99198.66;5115715;28;20510;-81
2023/01/18 04:19:46;;;;;;;6.75;3.50;;;;;;;-4.03;97.04;99201.19;5115016;28;20446;-81
2023/01/18 04:22:11;;;;;;;6.95;3.55;;;;;;;-4.05;96.94;99195.22;5115406;28;20024;-81
2023/01/18 04:24:37;;;;;;;6.43;3.60;;;;;;;-4.04;96.85;99196.06;5115789;28;20074;-81
2023/01/18 04:27:08;;;;;;;7.63;3.38;;;;;;;-4.05;97.11;99194.34;5114900;28;20068;-81
2023/01/18 04:29:33;;;;;;;4.90;2.90;;;;;;;-4.05;96.91;99201.97;5115988;28;20027;-81
2023/01/18 04:31:58;;;;;;;5.57;2.80;;;;;;;-4.05;96.85;99192.69;5114853;28;20222;-81
2023/01/18 04:34:24;;;;;;;6.90;3.30;;;;;;;-4.06;96.98;99192.69;5113897;28;20023;-81
2023/01/18 04:36:59;;;;;;;7.72;3.50;;;;;;;-4.06;97.09;99197.75;5114402;28;20055;-81
2023/01/18 04:39:25;;;;;;;5.80;3.20;;;;;;;-4.06;96.88;99203.66;5114642;28;20028;-80
2023/01/18 04:41:50;;;;;;;5.18;3.10;;;;;;;-4.06;96.81;99197.75;5114389;28;20019;-81
2023/01/18 04:44:15;;;;;;;6.63;3.40;;;;;;;-4.05;96.87;99199.41;5113860;28;20028;-81
2023/01/18 04:46:41;;;;;;;6.25;3.50;;;;;;;-4.04;96.83;99203.66;5115148;28;20072;-82
2023/01/18 04:49:12;;;;;;;5.70;3.10;;;;;;;-4.03;97.47;99213.84;5113600;28;20015;-81
2023/01/18 04:51:38;;;;;;;6.47;3.30;;;;;;;-4.01;96.91;99207.97;5115379;28;20032;-81
2023/01/18 04:54:03;;;;;;;7.95;3.40;;;;;;;-4.01;97.08;99203.72;5114716;28;20035;-81
2023/01/18 04:56:29;;;;;;;6.05;3.45;;;;;;;-3.99;97.21;99212.22;5114447;28;20028;-81
2023/01/18 04:58:54;;;;;;;6.68;3.65;;;;;;;-3.96;97.32;99212.28;5115415;28;20035;-81
2023/01/18 05:01:20;;;;;;;6.25;3.50;;;;;;;-3.95;97.31;99220.72;5112993;28;20063;-80
2023/01/18 05:03:46;;;;;;;6.15;3.78;;;;;;;-3.96;97.24;99224.09;5113649;28;20123;-81
2023/01/18 05:06:13;;;;;;;6.82;3.70;;;;;;;-3.98;97.27;99224.06;5113351;28;20072;-81
2023/01/18 05:08:39;;;;;;;8.88;4.07;;;;;;;-3.99;97.22;99227.41;5113946;28;20357;-81
2023/01/18 05:11:07;;;;;;;6.20;3.38;;;;;;;-3.97;97.49;99219.84;5113213;28;20015;-81
2023/01/18 05:13:32;;;;;;;7.55;3.80;;;;;;;-3.95;97.52;99230.84;5114984;28;20050;-81
2023/01/18 05:15:59;;;;;;;8.70;4.25;;;;;;;-3.91;97.43;99240.22;5114176;28;20039;-81
2023/01/18 05:18:25;;;;;;;6.43;3.47;;;;;;;-3.91;97.43;99233.47;5114081;28;20028;-81
2023/01/18 05:20:50;;;;;;;8.15;3.85;;;;;;;-3.89;97.83;99236.91;5114145;28;20479;-81
2023/01/18 05:23:16;;;;;;;7.93;4.13;;;;;;;-3.86;97.41;99241.16;5113563;28;20023;-81
2023/01/18 05:25:41;;;;;;;8.30;4.03;;;;;;;-3.83;97.36;99237.84;5114520;28;20023;-81
2023/01/18 05:28:07;;;;;;;8.50;4.03;;;;;;;-3.79;97.73;99242.97;5114093;28;20027;-81
2023/01/18 05:30:36;;;;;;;9.45;4.38;;;;;;;-3.75;97.23;99246.41;5113730;28;20395;-81
2023/01/18 05:33:02;;;;;;;9.70;4.30;;;;;;;-3.74;97.23;99248.97;5114313;28;20379;-81
2023/01/18 05:35:27;;;;;;;8.57;4.22;;;;;;;-3.73;97.73;99252.38;5114310;28;20024;-82
2023/01/18 05:37:53;;;;;;;11.65;4.75;;;;;;;-3.74;97.42;99245.59;5113645;28;20043;-81
2023/01/18 05:40:19;;;;;;;9.98;4.35;;;;;;;-3.72;97.78;99256.63;5114193;28;20054;-81
2023/01/18 05:42:45;;;;;;;9.27;4.55;;;;;;;-3.70;97.64;99264.25;5114469;28;20043;-81
2023/01/18 05:45:10;;;;;;;9.95;4.53;;;;;;;-3.70;97.29;99259.16;5113020;28;20028;-81
2023/01/18 05:47:35;;;;;;;10.40;4.75;;;;;;;-3.69;97.43;99260.88;5113421;28;20020;-81
2023/01/18 05:50:01;;;;;;;10.57;4.70;;;;;;;-3.69;97.45;99258.34;5114005;28;20047;-81
2023/01/18 05:52:26;;;;;;;10.27;4.90;;;;;;;-3.69;97.24;99263.41;5112832;28;20026;-81
2023/01/18 05:54:51;;;;;;;10.75;4.97;;;;;;;-3.70;97.44;99260.00;5113908;28;20027;-81
2023/01/18 05:57:17;;;;;;;8.95;4.07;;;;;;;-3.70;97.71;99271.84;5113260;28;20038;-81
2023/01/18 05:59:42;;;;;;;9.77;4.22;;;;;;;-3.71;97.23;99270.97;5112560;28;20028;-81
2023/01/18 06:02:07;;;;;;;8.00;3.88;;;;;;;-3.71;97.31;99286.19;5112763;28;20099;-81
2023/01/18 06:04:32;;;;;;;9.45;4.18;;;;;;;-3.72;97.46;99279.44;5113839;28;20023;-81
2023/01/18 06:06:58;;;;;;;10.60;4.93;;;;;;;-3.70;97.48;99277.75;5113067;28;20488;-81
2023/01/18 06:09:23;;;;;;;11.38;5.03;;;;;;;-3.73;97.34;99270.97;5113256;28;20379;-81
2023/01/18 06:11:48;;;;;;;16.02;6.13;;;;;;;-3.70;97.62;99274.38;5113133;28;20076;-81
2023/01/18 06:14:14;;;;;;;11.45;5.10;;;;;;;-3.69;97.69;99279.47;5113206;28;20035;-81
2023/01/18 06:16:39;;;;;;;12.57;6.15;;;;;;;-3.71;97.58;99293.78;5113887;28;20495;-81
2023/01/18 06:19:05;;;;;;;13.20;5.70;;;;;;;-3.70;97.80;99292.13;5112748;28;20396;-81
2023/01/18 06:21:30;;;;;;;12.95;5.80;;;;;;;-3.68;97.70;99298.09;5113407;28;20088;-81
2023/01/18 06:23:56;;;;;;;11.20;5.30;;;;;;;-3.72;97.79;99305.63;5112107;28;20115;-81
2023/01/18 06:26:22;;;;;;;10.45;4.90;;;;;;;-3.74;97.60;99309.81;5091662;28;20047;-81
2023/01/18 06:28:48;;;;;;;11.20;4.80;;;;;;;-3.78;97.65;99312.28;5092903;28;20020;-81
2023/01/18 06:31:13;;;;;;;10.38;5.00;;;;;;;-3.83;97.95;99312.19;5092929;28;20099;-81
2023/01/18 06:33:39;;;;;;;11.68;4.97;;;;;;;-3.83;97.87;99322.34;5092389;28;20616;-82
2023/01/18 06:36:13;;;;;;;12.68;5.38;;;;;;;-3.84;97.47;99314.72;5092780;28;20056;-81
2023/01/18 06:38:40;;;;;;;14.60;5.82;;;;;;;-3.86;97.49;99317.19;5092908;28;20020;-81
2023/01/18 06:41:06;;;;;;;13.00;6.07;;;;;;;-3.84;97.53;99320.63;5091893;28;20491;-81
2023/01/18 06:43:31;;;;;;;13.07;5.82;;;;;;;-3.84;97.55;99314.72;5093067;28;20062;-81
2023/01/18 06:45:56;;;;;;;13.05;5.93;;;;;;;-3.82;97.59;99318.97;5093034;28;20391;-81
2023/01/18 06:48:23;;;;;;;11.05;5.50;;;;;;;-3.84;97.55;99320.63;5091949;28;20048;-81
2023/01/18 06:50:51;;;;;;;13.60;6.07;;;;;;;-3.82;97.87;99336.72;5092744;28;20020;-82
2023/01/18 06:53:17;;;;;;;13.40;5.72;;;;;;;-3.82;97.64;99341.78;5104949;28;20058;-81
2023/01/18 06:55:43;;;;;;;15.80;6.80;;;;;;;-3.80;97.59;99351.94;5112469;28;20020;-81
2023/01/18 06:58:08;;;;;;;15.38;6.63;;;;;;;-3.80;97.53;99349.41;5112300;28;20377;-81
2023/01/18 07:00:33;;;;;;;15.55;6.97;;;;;;;-3.82;97.43;99348.53;5112654;28;20027;-81
2023/01/18 07:02:59;;;;;;;14.25;6.53;;;;;;;-3.82;97.82;99353.59;5112415;28;20425;-81
2023/01/18 07:05:24;;;;;;;13.70;6.22;;;;;;;-3.84;97.88;99358.66;5112648;28;20475;-82
2023/01/18 07:07:49;;;;;;;12.20;5.90;;;;;;;-3.84;97.72;99363.72;5113360;28;20590;-82
2023/01/18 07:10:15;;;;;;;12.32;5.53;;;;;;;-3.84;97.85;99360.34;5112149;28;20016;-80
2023/01/18 07:12:41;;;;;;;11.65;6.28;;;;;;;-3.82;97.97;99366.28;5114563;28;20515;-81
2023/01/18 07:15:06;;;;;;;13.80;5.55;;;;;;;-3.81;97.88;99362.91;5116073;28;20019;-81
2023/01/18 07:17:32;;;;;;;11.68;5.25;;;;;;;-3.81;97.91;99365.44;5116469;28;20050;-81
2023/01/18 07:19:57;;;;;;;11.95;5.30;;;;;;;-3.80;97.70;99369.69;5116308;28;20044;-81
2023/01/18 07:22:22;;;;;;;12.10;5.35;;;;;;;-3.80;98.10;99367.16;5116022;28;20519;-81
2023/01/18 07:24:47;;;;;;;10.38;5.45;;;;;;;-3.78;97.75;99374.00;5098526;28;20035;-81
2023/01/18 07:27:13;;;;;;;13.40;5.90;;;;;;;-3.76;98.01;99374.00;5116283;28;20448;-81
2023/01/18 07:29:38;;;;;;;13.23;5.63;;;;;;;-3.77;97.82;99373.13;5116079;28;20487;-81
2023/01/18 07:32:04;;;;;;;12.40;5.60;;;;;;;-3.74;98.01;99374.91;5116762;28;20039;-81
2023/01/18 07:34:29;;;;;;;11.98;5.50;;;;;;;-3.73;97.88;99376.63;5116672;28;20043;-81
2023/01/18 07:36:54;;;;;;;13.18;5.95;;;;;;;-3.72;97.93;99385.94;5115870;28;20067;-81
2023/01/18 07:39:20;;;;;;;13.32;5.93;;;;;;;-3.71;97.56;99380.00;5116558;28;20486;-81
2023/01/18 07:41:45;;;;;;;13.65;6.45;;;;;;;-3.68;97.73;99391.91;5116646;28;20094;-81
2023/01/18 07:44:11;;;;;;;14.73;6.55;;;;;;;-3.68;98.10;99390.22;5115312;28;20403;-81
2023/01/18 07:46:37;;;;;;;13.75;6.22;;;;;;;-3.66;97.61;99390.25;5116488;28;20027;-81
2023/01/18 07:49:04;;;;;;;14.85;6.60;;;;;;;-3.64;97.82;99394.53;5115336;28;20077;-81
2023/01/18 07:51:30;;;;;;;14.60;6.63;;;;;;;-3.63;97.69;99397.91;5115133;28;20069;-82
2023/01/18 07:53:56;;;;;;;16.20;7.20;;;;;;;-3.62;97.68;99399.63;5116528;28;20024;-81
2023/01/18 07:56:24;;;;;;;15.48;6.95;;;;;;;-3.61;97.93;99401.34;5114941;28;20647;-82
2023/01/18 07:58:50;;;;;;;16.20;7.60;;;;;;;-3.59;97.60;99404.75;5114859;28;20043;-82
2023/01/18 08:01:21;;;;;;;15.95;7.05;;;;;;;-3.57;97.88;99403.94;5115902;28;20357;-81
2023/01/18 08:03:47;;;;;;;16.20;7.43;;;;;;;-3.57;98.24;99401.41;5116073;28;20024;-81
2023/01/18 08:06:17;;;;;;;16.55;7.53;;;;;;;-3.55;98.06;99406.53;5115498;28;20027;-81
2023/01/18 08:08:43;;;;;;;15.93;7.43;;;;;;;-3.54;97.67;99407.38;5116266;28;20031;-82
2023/01/18 08:11:09;;;;;;;14.48;7.05;;;;;;;-3.53;98.00;99414.16;5115683;28;20023;-82
2023/01/18 08:13:34;;;;;;;16.17;7.25;;;;;;;-3.52;98.00;99423.47;5115224;28;20068;-82
2023/01/18 08:16:01;;;;;;;16.23;7.25;;;;;;;-3.51;97.62;99431.13;5115833;28;20459;-81
2023/01/18 08:18:27;;;;;;;;;;;;;;;-3.50;97.92;99427.75;5114811;28;20023;-81
2023/01/18 08:20:52;;;;;;;18.17;7.80;;;;;;;-3.48;97.53;99431.19;5115240;28;20393;-80
2023/01/18 08:23:17;;;;;;;17.95;7.30;;;;;;;-3.45;97.93;99428.72;5115526;28;20038;-81
2023/01/18 08:25:43;;;;;;;17.13;7.72;;;;;;;-3.42;97.88;99430.44;5114058;28;20114;-81
2023/01/18 08:28:10;;;;;;;17.48;7.75;;;;;;;-3.39;97.83;99430.50;5115259;28;20059;-81
2023/01/18 08:30:38;;;;;;;18.03;7.80;;;;;;;-3.37;97.42;99433.91;5114846;28;20035;-81
2023/01/18 08:33:15;;;;;;;19.70;8.20;;;;;;;-3.35;97.86;99434.78;5114759;28;20273;-81
2023/01/18 08:35:56;;;;;;;17.65;8.05;;;;;;;-3.35;97.81;99433.94;5115409;28;20119;-82
2023/01/18 08:38:22;;;;;;;18.15;7.72;;;;;;;-3.34;97.74;99438.19;5115086;28;20028;-82
2023/01/18 08:40:47;;;;;;;15.43;7.17;;;;;;;-3.27;97.89;99442.53;5114942;28;20080;-81
2023/01/18 08:43:13;;;;;;;16.83;7.32;;;;;;;-3.27;97.85;99448.50;5113903;28;20282;-81
2023/01/18 08:45:38;;;;;;;14.85;7.07;;;;;;;-3.24;98.12;99459.50;5114651;28;20131;-80
2023/01/18 08:48:06;;;;;;;14.57;6.65;;;;;;;-3.22;98.02;99463.81;5114331;28;20369;-84
2023/01/18 08:50:48;;;;;;;15.82;6.72;;;;;;;-3.18;97.68;99457.09;5115163;28;20478;-81
2023/01/18 08:53:20;;;;;;;14.45;6.35;;;;;;;-3.16;98.16;99463.91;5113932;28;20024;-81
2023/01/18 08:55:53;;;;;;;16.77;6.53;;;;;;;-3.09;97.99;99469.94;5114173;28;20042;-81
2023/01/18 08:58:25;;;;;;;15.75;7.30;;;;;;;-3.03;98.25;99467.50;5113797;28;20460;-81
2023/01/18 09:01:07;;;;;;;16.52;6.90;;;;;;;-2.95;98.32;99481.22;5114276;28;20032;-81
2023/01/18 09:03:49;;;;;;;15.15;6.47;;;;;;;-2.88;98.30;99483.84;5114621;28;20031;-82
2023/01/18 09:06:15;;;;;;;15.32;6.72;;;;;;;-2.84;97.90;99478.00;5113661;27;20028;-82
2023/01/18 09:08:41;;;;;;;14.25;6.43;;;;;;;-2.82;98.23;99483.97;5109106;28;20390;-80
2023/01/18 09:11:10;;;;;;;13.70;6.37;;;;;;;-2.75;98.44;99488.31;5114677;28;20047;-82
2023/01/18 09:13:45;;;;;;;13.57;6.55;;;;;;;-2.69;98.55;99490.94;5114557;28;20607;-82
2023/01/18 09:16:10;;;;;;;12.93;6.25;;;;;;;-2.67;98.46;99489.28;5112324;28;20027;-81
2023/01/18 09:18:37;;;;;;;15.15;6.70;;;;;;;-2.61;98.25;99493.59;5112736;28;20015;-82
2023/01/18 09:21:07;;;;;;;15.40;6.55;;;;;;;-2.54;98.20;99505.59;5112014;28;20047;-82
2023/01/18 09:23:33;;;;;;;12.82;6.25;;;;;;;-2.53;98.72;99502.19;5112319;28;20027;-83
2023/01/18 09:26:08;;;;;;;12.17;5.83;;;;;;;-2.44;98.40;99509.13;5112397;28;20450;-83
2023/01/18 09:28:33;;;;;;;14.02;5.60;;;;;;;-2.38;98.56;99511.78;5112940;28;20107;-83
2023/01/18 09:31:07;;;;;;;14.13;6.70;;;;;;;-2.31;98.31;99511.84;5112449;28;20134;-82
2023/01/18 09:33:33;;;;;;;13.30;6.38;;;;;;;-2.21;98.56;99514.56;5114692;28;20035;-82
2023/01/18 09:36:01;;;;;;;13.65;6.35;;;;;;;-2.11;98.96;99518.09;5113026;28;20578;-82
2023/01/18 09:38:29;;;;;;;12.95;5.93;;;;;;;-2.00;98.41;99517.41;5113680;28;20027;-82
2023/01/18 09:40:55;;;;;;;12.18;5.80;;;;;;;-1.90;99.08;99520.09;5114102;28;20587;-82
2023/01/18 09:43:33;;;;;;;11.88;5.90;;;;;;;-1.77;99.06;99518.56;5112784;28;20060;-83
2023/01/18 09:46:00;;;;;;;11.65;5.60;;;;;;;-1.64;98.74;99521.28;5104917;28;20034;-83
2023/01/18 09:48:32;;;;;;;10.85;5.20;;;;;;;-1.55;99.03;99523.94;5113914;28;20040;-84
2023/01/18 09:51:03;;;;;;;8.68;4.70;;;;;;;-1.44;98.79;99532.56;5113372;28;20106;-83
2023/01/18 09:53:52;;;;;;;10.73;4.97;;;;;;;-1.31;98.75;99532.72;5114240;28;20015;-83
2023/01/18 09:56:23;;;;;;;10.02;5.05;;;;;;;-1.21;98.39;99534.53;5113583;28;20107;-84
2023/01/18 09:59:10;;;;;;;9.23;4.80;;;;;;;-1.09;97.75;99542.31;5113067;28;20084;-85
2023/01/18 10:01:37;;;;;;;9.48;4.75;;;;;;;-0.99;98.40;99533.09;5114029;28;20031;-84
2023/01/18 10:04:14;;;;;;;10.55;4.78;;;;;;;-0.88;98.00;99535.72;5113121;28;20023;-85
2023/01/18 10:06:48;;;;;;;15.15;6.82;;;;;;;-0.77;97.72;99538.41;5113578;28;20563;-85
2023/01/18 10:09:34;;;;;;;14.70;6.60;;;;;;;-0.68;97.83;99535.94;5113470;28;20077;-85
2023/01/18 10:12:18;;;;;;;12.82;6.38;;;;;;;-0.58;97.46;99538.56;5112582;28;20044;-85
2023/01/18 10:15:00;;;;;;;13.43;6.60;;;;;;;-0.50;97.25;99548.00;5114255;28;20031;-86
2023/01/18 10:17:37;;;;;;;14.00;6.63;;;;;;;-0.41;97.32;99544.69;5113674;28;20482;-85
2023/01/18 10:20:19;;;;;;;12.88;6.10;;;;;;;-0.30;97.52;99546.47;5112751;28;20092;-87
2023/01/18 10:22:55;;;;;;;14.70;6.93;;;;;;;-0.16;96.88;99548.28;5093406;28;20066;-87
2023/01/18 10:25:30;;;;;;;12.13;6.40;;;;;;;-0.06;96.52;99545.78;5100765;28;20111;-88
2023/01/18 10:28:23;;;;;;;14.65;6.50;;;;;;;0.03;96.37;99548.38;5113974;28;20084;-87
2023/01/18 10:31:07;;;;;;;14.20;7.13;;;;;;;0.13;96.39;99545.06;5113679;28;20031;-87
2023/01/18 10:33:39;;;;;;;15.48;7.35;;;;;;;0.23;96.04;99555.31;5113185;28;20118;-87
2023/01/18 10:36:40;;;;;;;14.23;7.13;;;;;;;0.32;95.26;99557.94;5113489;28;20035;-87
2023/01/18 10:39:32;;;;;;;13.13;6.55;;;;;;;0.41;95.93;99552.00;5110080;28;20027;-87
2023/01/18 10:42:01;;;;;;;11.55;5.85;;;;;;;0.52;96.34;99552.09;5102713;28;20391;-87
2023/01/18 10:44:27;;;;;;;15.15;7.63;;;;;;;0.63;94.94;99549.56;5114022;28;20472;-88
2023/01/18 10:46:58;;;;;;;14.25;6.95;;;;;;;0.69;95.41;99547.88;5113250;28;20106;-88
2023/01/18 10:49:34;;;;;;;15.43;7.43;;;;;;;0.76;94.65;99549.66;5113930;28;20501;-88
2023/01/18 10:52:26;;;;;;;13.70;7.05;;;;;;;0.83;94.93;99553.06;5114570;28;20028;-89
2023/01/18 10:54:54;;;;;;;13.75;6.78;;;;;;;0.90;95.20;99554.78;5113040;28;20024;-86
2023/01/18 10:57:28;;;;;;;13.27;6.30;;;;;;;0.98;95.03;99556.50;5112960;28;20476;-86
2023/01/18 10:59:54;;;;;;;15.90;7.90;;;;;;;1.05;93.53;99553.16;5113487;28;20490;-88
2023/01/18 11:02:28;;;;;;;15.10;7.05;;;;;;;1.11;93.89;99555.69;5113074;28;20031;-88
2023/01/18 11:04:58;;;;;;;15.57;7.60;;;;;;;1.15;93.70;99557.44;5114143;28;20024;-88
2023/01/18 11:07:26;;;;;;;15.00;7.20;;;;;;;1.25;93.68;99560.00;5113663;28;20024;-88
2023/01/18 11:09:58;;;;;;;14.70;7.40;;;;;;;1.33;93.92;99559.16;5113968;28;20028;-88
2023/01/18 11:12:41;;;;;;;12.07;6.75;;;;;;;1.42;94.41;99567.69;5114098;28;20092;-88
2023/01/18 11:15:12;;;;;;;14.77;6.68;;;;;;;1.51;93.60;99568.56;5113945;28;20044;-89
2023/01/18 11:17:37;;;;;;;15.02;6.97;;;;;;;1.57;93.27;99572.84;5115111;28;20027;-88
2023/01/18 11:20:18;;;;;;;13.45;6.75;;;;;;;1.63;93.09;99577.94;5114536;28;20066;-88
2023/01/18 11:23:02;;;;;;;13.02;6.43;;;;;;;1.69;92.84;99580.50;5113663;28;20027;-88
2023/01/18 11:25:59;;;;;;;13.57;6.45;;;;;;;1.75;92.45;99577.09;5113326;28;20490;-88
2023/01/18 11:28:35;;;;;;;12.55;6.00;;;;;;;1.78;93.32;99569.44;5112152;28;20495;-87
2023/01/18 11:31:15;;;;;;;14.20;7.00;;;;;;;1.83;91.34;99565.19;5113789;28;20376;-88
2023/01/18 11:33:56;;;;;;;13.75;6.68;;;;;;;1.89;91.58;99554.09;5113274;28;20073;-88
2023/01/18 11:36:43;;;;;;;13.70;7.38;;;;;;;1.96;91.60;99558.34;5112809;28;20031;-87
2023/01/18 11:39:26;;;;;;;15.25;6.72;;;;;;;2.03;91.79;99566.03;5113034;28;20073;-88
2023/01/18 11:42:20;;;;;;;14.25;6.70;;;;;;;2.08;91.25;99559.19;5112841;28;20028;-87
2023/01/18 11:45:07;;;;;;;13.65;6.53;;;;;;;2.19;91.20;99559.19;5083170;28;20047;-87
2023/01/18 11:48:04;;;;;;;11.55;6.40;;;;;;;2.22;90.10;99557.47;5093077;28;20389;-88
2023/01/18 11:50:47;;;;;;;11.82;6.20;;;;;;;2.26;91.57;99564.25;5092768;28;20040;-87
2023/01/18 11:53:15;;;;;;;12.27;6.10;;;;;;;2.33;88.80;99562.53;5092572;28;20076;-88
2023/01/18 11:56:05;;;;;;;12.52;6.03;;;;;;;2.40;90.24;99561.69;5092764;28;20035;-86
2023/01/18 11:58:31;;;;;;;10.40;5.72;;;;;;;2.48;90.65;99556.53;5092306;28;20047;-87
2023/01/18 12:01:07;;;;;;;10.20;5.20;;;;;;;2.57;91.18;99563.34;5108008;27;20016;-87
2023/01/18 12:03:53;;;;;;;10.98;5.43;;;;;;;2.62;90.08;99569.31;5126241;27;20027;-86
2023/01/18 12:06:43;;;;;;;12.52;5.97;;;;;;;2.66;90.45;99570.16;5111762;28;20039;-86
2023/01/18 12:09:30;;;;;;;11.18;5.28;;;;;;;2.72;90.72;99575.22;5115670;28;20019;-86
2023/01/18 12:12:03;;;;;;;11.88;5.75;;;;;;;2.79;89.98;99579.50;5114669;28;20110;-87
2023/01/18 12:14:34;;;;;;;10.40;5.43;;;;;;;2.80;89.35;99586.34;5115157;28;20036;-87
2023/01/18 12:17:31;;;;;;;9.48;5.35;;;;;;;2.79;88.53;99582.06;5116014;28;20024;-86